createdAt,value
2022-12-28T00:02:23.858Z,99576.00
2022-12-28T00:04:52.580Z,99635.94
2022-12-28T00:07:20.954Z,99631.44
2022-12-28T00:09:49.400Z,99640.56
2022-12-28T00:12:19.332Z,99615.59
2022-12-28T00:14:47.586Z,99655.28
2022-12-28T00:17:17.814Z,99619.06
2022-12-28T00:19:46.271Z,99575.72
2022-12-28T00:22:14.812Z,99578.25
2022-12-28T00:24:43.022Z,99580.78
2022-12-28T00:27:11.312Z,99553.09
2022-12-28T00:29:41.391Z,99586.44
2022-12-28T00:32:09.907Z,99588.78
2022-12-28T00:34:38.760Z,99607.31
2022-12-28T00:37:12.906Z,99588.59
2022-12-28T00:39:43.540Z,99594.50
2022-12-28T00:42:11.809Z,99576.66
2022-12-28T00:44:45.238Z,99599.09
2022-12-28T00:47:13.443Z,99585.31
2022-12-28T00:49:41.513Z,99614.00
2022-12-28T00:52:10.140Z,99595.31
2022-12-28T00:54:38.363Z,99630.38
2022-12-28T00:57:06.457Z,99540.91
2022-12-28T00:59:34.586Z,99598.59
2022-12-28T01:02:04.405Z,99538.75
2022-12-28T01:04:32.703Z,99564.59
2022-12-28T01:07:00.897Z,99587.88
2022-12-28T01:09:28.960Z,99621.38
2022-12-28T01:11:57.035Z,99569.09
2022-12-28T01:14:25.061Z,99540.22
2022-12-28T01:16:53.536Z,99535.09
2022-12-28T01:19:25.287Z,99584.69
2022-12-28T01:21:53.543Z,99593.31
2022-12-28T01:24:21.818Z,99521.03
2022-12-28T01:26:49.881Z,99559.97
2022-12-28T01:29:17.871Z,99531.13
2022-12-28T01:31:45.934Z,99496.81
2022-12-28T01:34:14.027Z,99551.88
2022-12-28T01:36:43.458Z,99562.97
2022-12-28T01:39:12.343Z,99517.94
2022-12-28T01:41:42.476Z,99482.41
2022-12-28T01:44:48.074Z,99556.38
2022-12-28T01:47:19.932Z,99557.81
2022-12-28T01:49:53.437Z,99523.50
2022-12-28T01:52:28.630Z,99507.22
2022-12-28T01:55:01.698Z,99516.81
2022-12-28T01:57:34.022Z,99516.38
2022-12-28T02:00:05.972Z,99540.97
2022-12-28T02:02:35.025Z,99507.59
2022-12-28T02:05:03.978Z,99567.44
2022-12-28T02:07:41.078Z,99473.56
2022-12-28T02:10:42.725Z,99493.91
2022-12-28T02:13:01.727Z,99557.16
2022-12-28T02:15:30.246Z,99500.97
2022-12-28T02:17:59.157Z,99465.63
2022-12-28T02:20:45.423Z,99533.44
2022-12-28T02:23:34.586Z,99444.97
2022-12-28T02:26:53.088Z,99522.94
2022-12-28T02:29:47.792Z,99527.47
2022-12-28T02:32:29.802Z,99470.88
2022-12-28T02:35:05.475Z,99522.09
2022-12-28T02:37:39.746Z,99482.94
2022-12-28T02:40:13.161Z,99463.69
2022-12-28T02:42:42.540Z,99438.75
2022-12-28T02:45:48.883Z,99470.63
2022-12-28T02:48:34.227Z,99465.81
2022-12-28T02:51:14.904Z,99419.41
2022-12-28T02:54:09.378Z,99453.22
2022-12-28T02:56:44.049Z,99482.16
2022-12-28T02:59:24.988Z,99480.34
2022-12-28T03:02:44.580Z,99476.38
2022-12-28T03:05:40.449Z,99418.00
2022-12-28T03:08:20.410Z,99438.03
2022-12-28T03:10:55.146Z,99432.19
2022-12-28T03:13:45.954Z,99402.53
2022-12-28T03:16:19.821Z,99394.22
2022-12-28T03:19:08.952Z,99469.13
2022-12-28T03:21:56.279Z,99410.81
2022-12-28T03:24:42.473Z,99379.19
2022-12-28T03:27:32.345Z,99407.44
2022-12-28T03:30:22.474Z,99414.69
2022-12-28T03:32:51.688Z,99392.75
2022-12-28T03:35:23.928Z,99442.97
2022-12-28T03:37:57.932Z,99398.34
2022-12-28T03:40:35.507Z,99382.75
2022-12-28T03:43:30.748Z,99442.72
2022-12-28T03:46:05.829Z,99342.69
2022-12-28T03:48:37.500Z,99439.69
2022-12-28T03:51:07.263Z,99426.06
2022-12-28T03:53:40.623Z,99340.63
2022-12-28T03:56:10.723Z,99364.84
2022-12-28T03:58:38.852Z,99377.78
2022-12-28T04:01:07.868Z,99346.28
2022-12-28T04:03:36.577Z,99346.06
2022-12-28T04:06:06.851Z,99363.16
2022-12-28T04:08:35.799Z,99411.16
2022-12-28T04:11:04.144Z,99351.38
2022-12-28T04:13:32.881Z,99392.47
2022-12-28T04:16:02.811Z,99373.09
2022-12-28T04:18:32.780Z,99330.97
2022-12-28T04:21:01.763Z,99407.88
2022-12-28T04:23:32.568Z,99336.22
2022-12-28T04:26:02.704Z,99327.69
2022-12-28T04:28:31.301Z,99324.69
2022-12-28T04:31:00.232Z,99379.06
2022-12-28T04:33:29.428Z,99347.34
2022-12-28T04:36:05.884Z,99368.56
2022-12-28T04:38:35.997Z,99345.78
2022-12-28T04:41:06.126Z,99379.78
2022-12-28T04:43:34.741Z,99410.94
2022-12-28T04:46:05.575Z,99368.72
2022-12-28T04:48:34.580Z,99348.22
2022-12-28T04:51:07.877Z,99351.81
2022-12-28T04:53:40.193Z,99386.00
2022-12-28T04:56:10.392Z,99380.50
2022-12-28T04:58:39.411Z,99330.97
2022-12-28T05:01:09.241Z,99393.63
2022-12-28T05:03:38.000Z,99409.28
2022-12-28T05:06:08.516Z,99358.59
2022-12-28T05:08:37.840Z,99358.84
2022-12-28T05:11:09.625Z,99339.25
2022-12-28T05:13:39.097Z,99370.63
2022-12-28T05:16:20.169Z,99348.78
2022-12-28T05:18:50.430Z,99381.34
2022-12-28T05:21:21.108Z,99363.97
2022-12-28T05:23:50.427Z,99426.41
2022-12-28T05:26:22.841Z,99365.41
2022-12-28T05:28:51.348Z,99407.31
2022-12-28T05:31:23.296Z,99362.63
2022-12-28T05:33:52.038Z,99348.88
2022-12-28T05:36:21.559Z,99363.88
2022-12-28T05:38:49.892Z,99372.88
2022-12-28T05:41:22.384Z,99381.16
2022-12-28T05:43:51.090Z,99403.03
2022-12-28T05:46:21.226Z,99373.91
2022-12-28T05:48:49.429Z,99335.22
2022-12-28T05:51:19.276Z,99317.69
2022-12-28T05:53:48.049Z,99352.47
2022-12-28T05:56:18.003Z,99345.34
2022-12-28T05:58:53.110Z,99351.56
2022-12-28T06:01:23.052Z,99327.34
2022-12-28T06:03:55.103Z,99352.97
2022-12-28T06:06:23.241Z,99351.94
2022-12-28T06:08:51.605Z,99324.91
2022-12-28T06:11:22.175Z,99330.09
2022-12-28T06:13:52.214Z,99361.75
2022-12-28T06:16:23.567Z,99338.94
2022-12-28T06:18:52.617Z,99314.94
2022-12-28T06:21:22.364Z,99314.88
2022-12-28T06:23:51.452Z,99321.78
2022-12-28T06:26:21.445Z,99324.50
2022-12-28T06:28:54.074Z,99306.41
2022-12-28T06:31:24.305Z,99318.47
2022-12-28T06:33:54.108Z,99296.91
2022-12-28T06:36:24.115Z,99293.53
2022-12-28T06:38:53.704Z,99350.00
2022-12-28T06:41:22.666Z,99308.06
2022-12-28T06:43:51.352Z,99321.94
2022-12-28T06:46:22.729Z,99348.78
2022-12-28T06:48:51.789Z,99344.47
2022-12-28T06:51:21.514Z,99314.72
2022-12-28T06:53:50.710Z,99294.25
2022-12-28T06:56:20.533Z,99338.00
2022-12-28T06:58:50.701Z,99280.34
2022-12-28T07:01:22.453Z,99260.75
2022-12-28T07:03:52.660Z,99291.53
2022-12-28T07:06:23.201Z,99305.69
2022-12-28T07:08:52.407Z,99333.22
2022-12-28T07:11:22.589Z,99304.91
2022-12-28T07:13:50.862Z,99286.50
2022-12-28T07:16:20.407Z,99316.84
2022-12-28T07:18:50.663Z,99277.00
2022-12-28T07:21:21.453Z,99307.97
2022-12-28T07:23:50.080Z,99294.25
2022-12-28T07:26:20.591Z,99326.59
2022-12-28T07:28:50.200Z,99286.81
2022-12-28T07:31:20.222Z,99306.44
2022-12-28T07:33:50.561Z,99237.72
2022-12-28T07:36:21.020Z,99288.81
2022-12-28T07:38:49.177Z,99284.19
2022-12-28T07:41:18.668Z,99311.06
2022-12-28T07:43:46.866Z,99296.47
2022-12-28T07:46:16.964Z,99240.88
2022-12-28T07:48:46.015Z,99248.19
2022-12-28T07:51:17.695Z,99281.28
2022-12-28T07:53:47.787Z,99232.78
2022-12-28T07:56:16.855Z,99309.25
2022-12-28T08:01:17.708Z,99236.53
2022-12-28T08:03:46.255Z,99296.63
2022-12-28T08:06:21.046Z,99304.47
2022-12-28T08:08:51.001Z,99280.50
2022-12-28T08:11:22.043Z,99257.66
2022-12-28T08:13:54.807Z,99248.59
2022-12-28T08:16:24.538Z,99251.50
2022-12-28T08:18:52.992Z,99261.03
2022-12-28T08:21:24.716Z,99209.22
2022-12-28T08:23:53.616Z,99240.38
2022-12-28T08:26:23.439Z,99245.03
2022-12-28T08:28:54.002Z,99278.47
2022-12-28T08:31:24.520Z,99264.28
2022-12-28T08:33:53.826Z,99265.31
2022-12-28T08:36:23.950Z,99214.34
2022-12-28T08:38:52.469Z,99305.50
2022-12-28T08:41:23.066Z,99250.00
2022-12-28T08:43:51.562Z,99273.13
2022-12-28T08:46:21.588Z,99210.75
2022-12-28T08:48:50.810Z,99274.09
2022-12-28T08:51:20.655Z,99265.00
2022-12-28T08:53:50.820Z,99241.22
2022-12-28T08:56:21.174Z,99195.81
2022-12-28T08:58:50.235Z,99266.66
2022-12-28T09:01:20.162Z,99190.56
2022-12-28T09:03:53.893Z,99266.16
2022-12-28T09:06:25.847Z,99270.34
2022-12-28T09:09:05.354Z,99228.88
2022-12-28T09:11:35.117Z,99219.34
2022-12-28T09:14:03.473Z,99265.59
2022-12-28T09:16:31.551Z,99208.47
2022-12-28T09:19:01.792Z,99268.44
2022-12-28T09:21:32.777Z,99200.22
2022-12-28T09:24:02.912Z,99199.25
2022-12-28T09:26:32.970Z,99216.19
2022-12-28T09:29:02.794Z,99217.72
2022-12-28T09:31:32.722Z,99198.34
2022-12-28T09:36:50.910Z,99189.81
2022-12-28T09:39:24.848Z,99172.31
2022-12-28T09:41:57.111Z,99230.34
2022-12-28T09:44:41.182Z,99204.34
2022-12-28T09:47:18.466Z,99210.19
2022-12-28T09:49:53.966Z,99215.63
2022-12-28T09:52:30.188Z,99239.69
2022-12-28T09:55:08.388Z,99243.09
2022-12-28T09:57:40.392Z,99227.19
2022-12-28T10:00:26.831Z,99230.38
2022-12-28T10:02:58.890Z,99237.25
2022-12-28T10:05:27.932Z,99221.09
2022-12-28T10:07:59.382Z,99229.75
2022-12-28T10:10:29.704Z,99188.09
2022-12-28T10:13:37.010Z,99220.34
2022-12-28T10:15:57.737Z,99202.34
2022-12-28T10:18:28.361Z,99229.06
2022-12-28T10:20:57.444Z,99196.84
2022-12-28T10:23:29.425Z,99168.59
2022-12-28T10:26:03.009Z,99211.03
2022-12-28T10:28:48.667Z,99190.28
2022-12-28T10:31:31.845Z,99217.16
2022-12-28T10:34:00.046Z,99165.19
2022-12-28T10:36:35.038Z,99130.69
2022-12-28T10:39:05.490Z,99169.69
2022-12-28T10:41:41.179Z,99158.13
2022-12-28T10:44:39.416Z,99161.66
2022-12-28T10:47:18.367Z,99159.41
2022-12-28T10:52:40.866Z,99174.19
2022-12-28T10:55:35.648Z,99161.22
2022-12-28T10:58:30.795Z,99113.66
2022-12-28T11:01:02.154Z,99097.72
2022-12-28T11:03:32.645Z,99100.03
2022-12-28T11:06:26.586Z,99101.00
2022-12-28T11:09:32.725Z,99169.94
2022-12-28T11:12:19.003Z,99123.31
2022-12-28T11:14:48.681Z,99098.16
2022-12-28T11:17:20.633Z,99110.03
2022-12-28T11:19:52.206Z,99095.91
2022-12-28T11:22:25.431Z,99113.00
2022-12-28T11:24:54.989Z,99162.19
2022-12-28T11:27:28.073Z,99139.03
2022-12-28T11:29:59.854Z,99136.69
2022-12-28T11:32:51.660Z,99072.22
2022-12-28T11:35:23.036Z,99076.38
2022-12-28T11:37:53.743Z,99130.31
2022-12-28T11:40:54.646Z,99130.22
2022-12-28T11:43:45.787Z,99087.63
2022-12-28T11:46:54.093Z,99086.78
2022-12-28T11:49:39.884Z,99065.13
2022-12-28T11:52:44.408Z,99109.00
2022-12-28T11:55:52.061Z,99116.22
2022-12-28T11:58:47.693Z,99081.84
2022-12-28T12:01:55.501Z,99090.91
2022-12-28T12:04:37.712Z,99064.69
2022-12-28T12:07:32.118Z,99071.09
2022-12-28T12:10:15.907Z,99070.63
2022-12-28T12:12:52.618Z,99059.94
2022-12-28T12:15:23.694Z,99060.81
2022-12-28T12:17:56.584Z,98993.56
2022-12-28T12:20:44.534Z,99006.66
2022-12-28T12:23:22.856Z,98995.19
2022-12-28T12:25:54.492Z,99006.97
2022-12-28T12:28:37.064Z,99002.09
2022-12-28T12:31:09.639Z,98997.56
2022-12-28T12:33:42.070Z,98955.56
2022-12-28T12:36:35.076Z,98946.25
2022-12-28T12:45:58.133Z,98972.16
2022-12-28T12:48:49.627Z,98951.28
2022-12-28T12:51:31.319Z,98993.56
2022-12-28T12:54:18.730Z,98984.91
2022-12-28T12:56:50.940Z,98994.25
2022-12-28T12:59:38.059Z,98956.09
2022-12-28T13:02:26.593Z,98924.03
2022-12-28T13:04:54.927Z,98946.34
2022-12-28T13:07:28.437Z,98918.91
2022-12-28T13:10:01.699Z,98963.84
2022-12-28T13:12:30.858Z,98867.81
2022-12-28T13:15:07.369Z,98913.59
2022-12-28T13:17:38.770Z,98919.28
2022-12-28T13:20:21.700Z,98889.84
2022-12-28T13:22:52.976Z,98897.81
2022-12-28T13:25:26.017Z,98915.09
2022-12-28T13:27:57.700Z,98942.03
2022-12-28T13:30:30.637Z,98875.94
2022-12-28T13:33:05.127Z,98936.22
2022-12-28T13:35:42.509Z,98929.59
2022-12-28T13:38:23.988Z,98929.22
2022-12-28T13:40:59.432Z,98918.84
2022-12-28T13:44:23.279Z,98911.59
2022-12-28T13:47:03.087Z,98910.84
2022-12-28T13:49:43.976Z,98888.13
2022-12-28T13:52:21.147Z,98888.81
2022-12-28T13:55:08.876Z,98893.44
2022-12-28T13:57:47.550Z,98892.13
2022-12-28T14:00:34.270Z,98879.75
2022-12-28T14:05:58.739Z,98896.34
2022-12-28T14:08:48.841Z,98887.75
2022-12-28T14:11:21.267Z,98888.47
2022-12-28T14:13:52.169Z,98872.63
2022-12-28T14:16:24.852Z,98886.78
2022-12-28T14:19:22.646Z,98882.84
2022-12-28T14:22:36.315Z,98885.44
2022-12-28T14:25:14.627Z,98880.81
2022-12-28T14:28:04.972Z,98869.06
2022-12-28T14:30:58.224Z,98875.94
2022-12-28T14:33:49.162Z,98868.91
2022-12-28T14:36:24.074Z,98860.84
2022-12-28T14:39:04.182Z,98857.72
2022-12-28T14:41:45.905Z,98859.94
2022-12-28T14:44:28.106Z,98853.31
2022-12-28T14:47:03.810Z,98856.44
2022-12-28T14:49:43.603Z,98855.00
2022-12-28T14:52:47.583Z,98848.47
2022-12-28T14:55:32.392Z,98846.78
2022-12-28T14:58:18.053Z,98842.06
2022-12-28T15:01:04.530Z,98830.69
2022-12-28T15:03:57.761Z,98809.06
2022-12-28T15:06:37.157Z,98822.97
2022-12-28T15:09:13.284Z,98811.25
2022-12-28T15:11:47.441Z,98821.16
2022-12-28T15:14:28.706Z,98802.91
2022-12-28T15:17:03.074Z,98804.00
2022-12-28T15:19:37.601Z,98808.84
2022-12-28T15:22:08.371Z,98807.84
2022-12-28T15:24:49.308Z,98805.56
2022-12-28T15:27:23.972Z,98801.59
2022-12-28T15:30:22.892Z,98802.06
2022-12-28T15:33:15.117Z,98804.94
2022-12-28T15:36:04.435Z,98797.53
2022-12-28T15:38:37.636Z,98797.09
2022-12-28T15:41:25.840Z,98788.41
2022-12-28T15:43:53.791Z,98779.78
2022-12-28T15:46:23.477Z,98792.47
2022-12-28T15:48:53.009Z,98800.06
2022-12-28T15:51:20.928Z,98794.03
2022-12-28T15:53:49.079Z,98791.38
2022-12-28T15:56:22.847Z,98767.78
2022-12-28T15:59:04.034Z,98780.75
2022-12-28T16:01:57.193Z,98767.69
2022-12-28T16:04:31.903Z,98755.72
2022-12-28T16:07:12.872Z,98755.34
2022-12-28T16:09:44.686Z,98760.81
2022-12-28T16:12:18.711Z,98744.72
2022-12-28T16:14:54.793Z,98750.88
2022-12-28T16:17:23.658Z,98757.28
2022-12-28T16:19:58.583Z,98740.63
2022-12-28T16:22:34.243Z,98723.69
2022-12-28T16:25:04.060Z,98735.78
2022-12-28T16:27:35.364Z,98713.22
2022-12-28T16:30:14.018Z,98719.84
2022-12-28T16:32:45.753Z,98716.84
2022-12-28T16:35:28.010Z,98719.38
2022-12-28T16:38:00.346Z,98660.19
2022-12-28T16:40:28.328Z,98703.31
2022-12-28T16:42:56.492Z,98710.69
2022-12-28T16:45:24.509Z,98699.56
2022-12-28T16:48:04.890Z,98705.97
2022-12-28T16:50:35.729Z,98696.91
2022-12-28T16:53:05.497Z,98703.88
2022-12-28T16:55:39.243Z,98694.97
2022-12-28T16:58:07.340Z,98699.47
2022-12-28T17:00:35.395Z,98668.28
2022-12-28T17:03:03.477Z,98705.84
2022-12-28T17:05:35.171Z,98683.72
2022-12-28T17:08:03.638Z,98694.25
2022-12-28T17:10:32.939Z,98669.59
2022-12-28T17:13:01.057Z,98687.47
2022-12-28T17:15:29.110Z,98669.31
2022-12-28T17:17:57.089Z,98682.94
2022-12-28T17:20:25.594Z,98639.59
2022-12-28T17:23:01.079Z,98642.59
2022-12-28T17:25:29.130Z,98647.22
2022-12-28T17:28:03.133Z,98665.13
2022-12-28T17:30:46.691Z,98659.56
2022-12-28T17:33:27.577Z,98675.47
2022-12-28T17:36:01.790Z,98669.00
2022-12-28T17:38:37.405Z,98671.06
2022-12-28T17:41:12.123Z,98656.19
2022-12-28T17:44:01.497Z,98659.38
2022-12-28T17:46:33.441Z,98657.47
2022-12-28T17:49:09.248Z,98636.41
2022-12-28T17:51:42.148Z,98658.13
2022-12-28T17:54:24.729Z,98666.50
2022-12-28T17:57:19.541Z,98666.00
2022-12-28T18:00:12.221Z,98660.31
2022-12-28T18:02:48.945Z,98656.47
2022-12-28T18:05:20.889Z,98673.47
2022-12-28T18:08:27.483Z,98672.78
2022-12-28T18:10:58.913Z,98665.09
2022-12-28T18:13:36.657Z,98672.09
2022-12-28T18:16:05.754Z,98666.00
2022-12-28T18:18:33.970Z,98644.41
2022-12-28T18:21:04.416Z,98665.56
2022-12-28T18:23:33.088Z,98663.09
2022-12-28T18:26:07.307Z,98657.03
2022-12-28T18:28:53.169Z,98621.66
2022-12-28T18:31:21.638Z,98650.47
2022-12-28T18:33:49.868Z,98560.38
2022-12-28T18:36:18.705Z,98640.16
2022-12-28T18:38:48.472Z,98637.50
2022-12-28T18:41:20.957Z,98640.00
2022-12-28T18:43:49.362Z,98629.00
2022-12-28T18:46:17.766Z,98619.69
2022-12-28T18:48:46.368Z,98627.59
2022-12-28T18:51:18.655Z,98637.03
2022-12-28T18:53:48.539Z,98633.97
2022-12-28T18:56:20.826Z,98627.53
2022-12-28T18:58:53.500Z,98612.84
2022-12-28T19:04:13.228Z,98615.13
2022-12-28T19:06:42.105Z,98614.75
2022-12-28T19:09:11.861Z,98590.28
2022-12-28T19:11:42.563Z,98608.28
2022-12-28T19:14:13.443Z,98590.31
2022-12-28T19:16:42.318Z,98586.66
2022-12-28T19:19:18.051Z,98606.19
2022-12-28T19:21:46.332Z,98528.94
2022-12-28T19:24:16.038Z,98584.44
2022-12-28T19:26:46.615Z,98594.09
2022-12-28T19:29:16.879Z,98603.97
2022-12-28T19:31:45.483Z,98604.19
2022-12-28T19:34:13.732Z,98604.78
2022-12-28T19:36:41.788Z,98602.56
2022-12-28T19:39:09.880Z,98602.47
2022-12-28T19:41:38.345Z,98598.19
2022-12-28T19:44:12.164Z,98544.78
2022-12-28T19:46:40.108Z,98603.59
2022-12-28T19:49:09.299Z,98587.16
2022-12-28T19:51:38.112Z,98573.53
2022-12-28T19:54:06.784Z,98594.97
2022-12-28T19:56:35.443Z,98552.31
2022-12-28T19:59:07.012Z,98545.91
2022-12-28T20:01:39.202Z,98553.16
2022-12-28T20:04:13.605Z,98581.56
2022-12-28T20:06:43.157Z,98589.72
2022-12-28T20:09:11.598Z,98524.97
2022-12-28T20:11:41.003Z,98571.78
2022-12-28T20:14:29.013Z,98554.63
2022-12-28T20:17:07.445Z,98533.69
2022-12-28T20:19:37.618Z,98554.69
2022-12-28T20:22:07.006Z,98511.16
2022-12-28T20:24:37.464Z,98513.41
2022-12-28T20:27:10.012Z,98517.91
2022-12-28T20:29:38.451Z,98552.31
2022-12-28T20:32:08.724Z,98536.38
2022-12-28T20:34:36.940Z,98540.69
2022-12-28T20:37:05.176Z,98521.69
2022-12-28T20:39:33.474Z,98583.88
2022-12-28T20:42:19.639Z,98552.66
2022-12-28T20:44:48.237Z,98528.69
2022-12-28T20:47:21.468Z,98549.50
2022-12-28T20:50:06.272Z,98506.72
2022-12-28T20:52:36.294Z,98581.84
2022-12-28T20:55:05.162Z,98528.75
2022-12-28T20:57:39.239Z,98566.53
2022-12-28T21:00:10.377Z,98557.16
2022-12-28T21:02:42.248Z,98481.97
2022-12-28T21:05:11.990Z,98514.81
2022-12-28T21:07:48.642Z,98560.31
2022-12-28T21:10:22.720Z,98511.31
2022-12-28T21:12:54.631Z,98518.00
2022-12-28T21:15:29.239Z,98560.13
2022-12-28T21:18:00.663Z,98534.94
2022-12-28T21:20:37.068Z,98482.09
2022-12-28T21:23:12.144Z,98554.69
2022-12-28T21:25:40.639Z,98479.38
2022-12-28T21:28:10.353Z,98462.28
2022-12-28T21:30:41.053Z,98521.56
2022-12-28T21:33:10.874Z,98546.97
2022-12-28T21:35:39.172Z,98469.19
2022-12-28T21:38:14.340Z,98517.22
2022-12-28T21:40:43.452Z,98455.66
2022-12-28T21:43:12.010Z,98497.75
2022-12-28T21:45:40.195Z,98508.09
2022-12-28T21:48:08.374Z,98538.97
2022-12-28T21:50:40.692Z,98470.97
2022-12-28T21:53:08.853Z,98555.72
2022-12-28T21:55:46.581Z,98460.34
2022-12-28T21:58:18.220Z,98507.31
2022-12-28T22:01:04.352Z,98493.25
2022-12-28T22:03:50.380Z,98496.25
2022-12-28T22:06:23.236Z,98454.72
2022-12-28T22:09:11.383Z,98454.22
2022-12-28T22:11:57.736Z,98450.41
2022-12-28T22:14:27.382Z,98436.78
2022-12-28T22:16:57.419Z,98485.50
2022-12-28T22:19:26.604Z,98502.31
2022-12-28T22:21:56.446Z,98459.03
2022-12-28T22:24:24.931Z,98497.25
2022-12-28T22:26:57.860Z,98436.94
2022-12-28T22:29:32.573Z,98433.97
2022-12-28T22:32:04.173Z,98444.72
2022-12-28T22:34:51.270Z,98482.66
2022-12-28T22:37:21.209Z,98427.94
2022-12-28T22:39:49.502Z,98481.72
2022-12-28T22:42:17.607Z,98459.97
2022-12-28T22:44:45.945Z,98483.06
2022-12-28T22:47:23.318Z,98462.75
2022-12-28T22:50:21.412Z,98443.94
2022-12-28T22:52:53.832Z,98441.59
2022-12-28T22:55:26.958Z,98481.09
2022-12-28T22:57:58.859Z,98430.81
2022-12-28T23:00:30.981Z,98426.59
2022-12-28T23:03:02.836Z,98477.16
2022-12-28T23:05:38.170Z,98471.78
2022-12-28T23:08:10.030Z,98493.31
2022-12-28T23:10:41.336Z,98453.44
2022-12-28T23:13:11.825Z,98477.72
2022-12-28T23:15:39.075Z,98447.66
2022-12-28T23:18:27.056Z,98500.75
2022-12-28T23:21:21.596Z,98426.81
2022-12-28T23:24:12.383Z,98479.06
2022-12-28T23:27:05.230Z,98435.13
2022-12-28T23:29:37.719Z,98466.78
2022-12-28T23:32:09.923Z,98503.56
2022-12-28T23:34:40.683Z,98423.50
2022-12-28T23:37:08.993Z,98510.44
2022-12-28T23:39:38.862Z,98420.31
2022-12-28T23:42:12.066Z,98424.53
2022-12-28T23:44:46.355Z,98414.94
2022-12-28T23:47:19.115Z,98457.53
2022-12-28T23:49:54.971Z,98462.16
2022-12-28T23:52:26.309Z,98441.38
2022-12-28T23:54:58.541Z,98417.66
2022-12-28T23:57:30.454Z,98417.66
